Time,TemperatureF,DewpointF,PressureIn,WindDirection,WindDirectionDegrees,WindSpeedMPH,WindSpeedGustMPH,Humidity,HourlyPrecipIn,Conditions,Clouds,dailyrainin,SoftwareType,DateUTC
2013-07-23 00:00:00,66.3,63.3,29.77,NE,41,0.0,0.0,90,0.00,,,0.11,Wunderground v.1.15,2013-07-23 05:00:00,
2013-07-23 00:05:00,66.3,63.3,29.74,NE,41,0.0,0.0,90,0.00,,,0.11,Wunderground v.1.15,2013-07-23 05:05:00,
2013-07-23 00:20:00,66.3,63.3,29.71,SE,144,0.0,0.0,90,0.00,,,0.00,Wunderground v.1.15,2013-07-23 05:20:00,
2013-07-23 00:25:00,66.3,63.3,29.71,SE,145,0.0,0.0,90,0.00,,,0.00,Wunderground v.1.15,2013-07-23 05:25:00,
2013-07-23 00:35:00,66.3,63.0,29.71,ESE,114,0.0,0.0,89,0.00,,,0.00,Wunderground v.1.15,2013-07-23 05:35:00,
2013-07-23 00:40:00,66.3,63.0,29.71,ESE,114,0.0,0.0,89,0.00,,,0.00,Wunderground v.1.15,2013-07-23 05:40:00,
2013-07-23 00:50:00,66.5,63.2,29.73,ESE,114,0.0,0.0,89,0.00,,,0.00,Wunderground v.1.15,2013-07-23 05:50:00,
2013-07-23 01:00:00,66.5,63.5,29.73,ESE,114,0.0,0.0,90,0.00,,,0.00,Wunderground v.1.15,2013-07-23 06:00:00,
2013-07-23 01:05:00,66.5,63.5,29.74,ESE,123,0.0,0.0,90,0.00,,,0.00,Wunderground v.1.15,2013-07-23 06:05:00,
2013-07-23 01:10:00,66.3,63.3,29.74,ESE,123,0.0,0.0,90,0.00,,,0.00,Wunderground v.1.15,2013-07-23 06:10:00,
2013-07-23 01:15:00,66.3,63.3,29.74,ESE,123,0.0,0.0,90,0.00,,,0.00,Wunderground v.1.15,2013-07-23 06:15:00,
2013-07-23 01:25:00,66.5,63.8,29.74,SSE,148,0.0,0.0,91,0.00,,,0.00,Wunderground v.1.15,2013-07-23 06:25:00,
2013-07-23 01:40:00,66.3,63.6,29.74,SSE,148,0.0,0.0,91,0.00,,,0.00,Wunderground v.1.15,2013-07-23 06:40:00,
2013-07-23 01:50:00,66.2,63.5,29.74,SSE,148,0.0,0.0,91,0.00,,,0.00,Wunderground v.1.15,2013-07-23 06:50:00,
2013-07-23 01:55:00,66.0,63.3,29.74,SSE,148,0.0,0.0,91,0.00,,,0.00,Wunderground v.1.15,2013-07-23 06:55:00,
2013-07-23 02:05:00,65.8,63.1,29.75,SSE,148,0.0,0.0,91,0.00,,,0.00,Wunderground v.1.15,2013-07-23 07:05:00,
2013-07-23 02:15:00,65.8,63.4,29.75,SSE,148,0.0,0.0,92,0.00,,,0.00,Wunderground v.1.15,2013-07-23 07:15:00,
2013-07-23 02:20:00,65.7,63.3,29.75,SSE,148,0.0,0.0,92,0.00,,,0.00,Wunderground v.1.15,2013-07-23 07:20:00,
2013-07-23 02:25:00,65.5,63.1,29.75,SSE,148,0.0,0.0,92,0.00,,,0.00,Wunderground v.1.15,2013-07-23 07:25:00,
2013-07-23 02:30:00,65.4,63.0,29.75,SSE,148,0.0,0.0,92,0.00,,,0.00,Wunderground v.1.15,2013-07-23 07:30:00,
2013-07-23 02:40:00,65.2,62.8,29.75,SSE,148,0.0,0.0,92,0.00,,,0.00,Wunderground v.1.15,2013-07-23 07:40:00,
2013-07-23 02:50:00,65.0,62.6,29.74,SSE,148,0.0,0.0,92,0.00,,,0.00,Wunderground v.1.15,2013-07-23 07:50:00,
2013-07-23 02:55:00,64.9,62.5,29.74,SSE,148,0.0,0.0,92,0.00,,,0.00,Wunderground v.1.15,2013-07-23 07:55:00,
2013-07-23 03:00:00,64.9,62.5,29.74,SSE,148,0.0,0.0,92,0.00,,,0.00,Wunderground v.1.15,2013-07-23 08:00:00,
2013-07-23 03:15:00,64.7,62.6,29.75,South,179,0.0,0.0,93,0.00,,,0.00,Wunderground v.1.15,2013-07-23 08:15:00,
2013-07-23 03:20:00,64.6,62.5,29.75,South,179,0.0,0.0,93,0.00,,,0.00,Wunderground v.1.15,2013-07-23 08:20:00,
2013-07-23 03:30:00,64.4,62.3,29.75,South,179,0.0,0.0,93,0.00,,,0.00,Wunderground v.1.15,2013-07-23 08:30:00,
2013-07-23 03:40:00,64.2,62.1,29.75,SSW,192,0.0,0.0,93,0.00,,,0.00,Wunderground v.1.15,2013-07-23 08:40:00,
2013-07-23 03:45:00,64.2,62.1,29.75,SSW,192,0.0,0.0,93,0.00,,,0.00,Wunderground v.1.15,2013-07-23 08:45:00,
2013-07-23 03:50:00,64.1,62.0,29.75,SSW,192,0.0,0.0,93,0.00,,,0.00,Wunderground v.1.15,2013-07-23 08:50:00,
2013-07-23 03:55:00,64.1,62.0,29.75,SSW,192,0.0,0.0,93,0.00,,,0.00,Wunderground v.1.15,2013-07-23 08:55:00,
2013-07-23 04:00:00,64.1,62.0,29.75,SSW,192,0.0,0.0,93,0.00,,,0.00,Wunderground v.1.15,2013-07-23 09:00:00,
2013-07-23 04:05:00,64.1,62.0,29.75,SSW,192,0.0,0.0,93,0.00,,,0.00,Wunderground v.1.15,2013-07-23 09:05:00,
2013-07-23 04:10:00,63.9,61.8,29.75,WSW,243,0.0,0.0,93,0.00,,,0.00,Wunderground v.1.15,2013-07-23 09:10:00,
2013-07-23 04:20:00,63.9,61.8,29.76,WSW,243,0.0,0.0,93,0.00,,,0.00,Wunderground v.1.15,2013-07-23 09:20:00,
2013-07-23 04:25:00,63.9,61.8,29.76,WSW,243,0.0,0.0,93,0.00,,,0.00,Wunderground v.1.15,2013-07-23 09:25:00,
2013-07-23 04:30:00,63.7,61.6,29.76,West,270,0.0,0.0,93,0.00,,,0.00,Wunderground v.1.15,2013-07-23 09:30:00,
2013-07-23 04:35:00,63.7,61.6,29.76,West,271,0.0,0.0,93,0.00,,,0.00,Wunderground v.1.15,2013-07-23 09:35:00,
2013-07-23 04:40:00,63.7,61.6,29.76,West,271,0.0,0.0,93,0.00,,,0.00,Wunderground v.1.15,2013-07-23 09:40:00,
2013-07-23 04:45:00,63.7,61.6,29.76,West,270,0.0,0.0,93,0.00,,,0.00,Wunderground v.1.15,2013-07-23 09:45:00,
2013-07-23 04:50:00,63.7,61.6,29.76,West,268,0.0,0.0,93,0.00,,,0.00,Wunderground v.1.15,2013-07-23 09:50:00,
2013-07-23 05:05:00,63.9,61.8,29.76,West,268,0.0,0.0,93,0.00,,,0.00,Wunderground v.1.15,2013-07-23 10:05:00,
2013-07-23 05:10:00,63.9,61.8,29.76,West,268,0.0,0.0,93,0.00,,,0.00,Wunderground v.1.15,2013-07-23 10:10:00,
2013-07-23 05:15:00,63.9,61.8,29.76,West,268,0.0,0.0,93,0.00,,,0.00,Wunderground v.1.15,2013-07-23 10:15:00,
2013-07-23 05:20:00,63.9,61.8,29.76,West,268,0.0,0.0,93,0.00,,,0.00,Wunderground v.1.15,2013-07-23 10:20:00,
2013-07-23 05:30:00,63.7,61.6,29.76,West,268,0.0,0.0,93,0.00,,,0.00,Wunderground v.1.15,2013-07-23 10:30:00,
2013-07-23 05:35:00,63.7,61.6,29.75,West,268,0.0,0.0,93,0.00,,,0.00,Wunderground v.1.15,2013-07-23 10:35:00,
2013-07-23 05:40:00,63.7,61.6,29.75,West,268,0.0,0.0,93,0.00,,,0.00,Wunderground v.1.15,2013-07-23 10:40:00,
2013-07-23 05:45:00,63.6,61.2,29.75,WNW,294,0.0,0.0,92,0.00,,,0.00,Wunderground v.1.15,2013-07-23 10:45:00,
2013-07-23 05:55:00,63.6,61.2,29.75,WNW,294,0.0,0.0,92,0.00,,,0.00,Wunderground v.1.15,2013-07-23 10:55:00,
2013-07-23 06:05:00,63.6,61.2,29.75,West,280,0.0,0.0,92,0.00,,,0.00,Wunderground v.1.15,2013-07-23 11:05:00,
2013-07-23 06:15:00,63.6,61.5,29.75,North,357,0.0,0.0,93,0.00,,,0.00,Wunderground v.1.15,2013-07-23 11:15:00,
2013-07-23 06:20:00,63.7,61.6,29.75,WNW,298,0.0,0.0,93,0.00,,,0.00,Wunderground v.1.15,2013-07-23 11:20:00,
2013-07-23 06:25:00,63.7,61.6,29.75,WNW,295,0.0,0.0,93,0.00,,,0.00,Wunderground v.1.15,2013-07-23 11:25:00,
2013-07-23 06:30:00,63.9,61.8,29.75,WNW,288,0.0,0.0,93,0.00,,,0.00,Wunderground v.1.15,2013-07-23 11:30:00,
2013-07-23 06:35:00,64.1,62.0,29.75,NW,311,0.0,0.0,93,0.00,,,0.00,Wunderground v.1.15,2013-07-23 11:35:00,
2013-07-23 06:45:00,64.2,62.4,29.75,NNW,330,0.0,0.0,94,0.00,,,0.00,Wunderground v.1.15,2013-07-23 11:45:00,
2013-07-23 06:50:00,64.4,62.3,29.76,WNW,292,0.0,0.0,93,0.00,,,0.00,Wunderground v.1.15,2013-07-23 11:50:00,
2013-07-23 06:55:00,64.6,62.5,29.76,NW,313,0.0,0.0,93,0.00,,,0.00,Wunderground v.1.15,2013-07-23 11:55:00,
2013-07-23 07:00:00,64.7,62.6,29.76,WNW,299,0.0,0.0,93,0.00,,,0.00,Wunderground v.1.15,2013-07-23 12:00:00,
2013-07-23 07:10:00,65.0,62.9,29.76,WNW,282,0.0,0.0,93,0.00,,,0.00,Wunderground v.1.15,2013-07-23 12:10:00,
2013-07-23 07:15:00,65.4,63.3,29.76,West,271,0.0,0.0,93,0.00,,,0.00,Wunderground v.1.15,2013-07-23 12:15:00,
2013-07-23 07:20:00,65.7,63.6,29.78,WNW,282,0.0,0.0,93,0.00,,,0.00,Wunderground v.1.15,2013-07-23 12:20:00,
2013-07-23 07:30:00,66.2,63.8,29.78,West,271,0.0,0.0,92,0.00,,,0.00,Wunderground v.1.15,2013-07-23 12:30:00,
2013-07-23 07:35:00,66.3,63.9,29.79,NW,308,0.0,0.0,92,0.00,,,0.00,Wunderground v.1.15,2013-07-23 12:35:00,
2013-07-23 07:40:00,66.5,64.1,29.79,WNW,294,0.0,0.0,92,0.00,,,0.00,Wunderground v.1.15,2013-07-23 12:40:00,
2013-07-23 07:45:00,66.7,64.3,29.79,NW,309,0.0,0.0,92,0.00,,,0.00,Wunderground v.1.15,2013-07-23 12:45:00,
2013-07-23 07:50:00,67.0,64.6,29.79,North,359,0.0,0.0,92,0.00,,,0.00,Wunderground v.1.15,2013-07-23 12:50:00,
2013-07-23 08:00:00,67.7,65.0,29.79,WNW,301,0.0,0.0,91,0.00,,,0.00,Wunderground v.1.15,2013-07-23 13:00:00,
2013-07-23 08:05:00,68.0,65.0,29.79,NW,326,0.0,0.0,90,0.00,,,0.00,Wunderground v.1.15,2013-07-23 13:05:00,
2013-07-23 08:10:00,68.3,65.3,29.79,North,0,0.0,0.0,90,0.00,,,0.01,Wunderground v.1.15,2013-07-23 13:10:00,
2013-07-23 08:25:00,68.8,65.7,29.79,WNW,292,0.0,0.0,90,0.00,,,0.01,Wunderground v.1.15,2013-07-23 13:25:00,
2013-07-23 08:35:00,69.0,65.9,29.81,NW,313,0.0,0.0,90,0.00,,,0.01,Wunderground v.1.15,2013-07-23 13:35:00,
2013-07-23 08:40:00,69.0,65.6,29.81,NNW,340,0.0,0.0,89,0.00,,,0.01,Wunderground v.1.15,2013-07-23 13:40:00,
2013-07-23 08:45:00,69.3,65.6,29.81,NNW,339,0.0,0.0,88,0.00,,,0.01,Wunderground v.1.15,2013-07-23 13:45:00,
2013-07-23 08:50:00,69.5,66.1,29.80,NNE,16,0.0,0.0,89,0.00,,,0.01,Wunderground v.1.15,2013-07-23 13:50:00,
2013-07-23 08:55:00,69.8,66.4,29.80,NNW,342,0.0,0.0,89,0.00,,,0.01,Wunderground v.1.15,2013-07-23 13:55:00,
2013-07-23 09:05:00,70.3,65.9,29.79,North,3,0.0,0.0,86,0.00,,,0.01,Wunderground v.1.15,2013-07-23 14:05:00,
2013-07-23 09:15:00,70.7,66.0,29.79,NNW,340,0.0,0.0,85,0.00,,,0.01,Wunderground v.1.15,2013-07-23 14:15:00,
2013-07-23 09:25:00,71.2,65.8,29.80,NW,311,0.0,0.0,83,0.00,,,0.01,Wunderground v.1.15,2013-07-23 14:25:00,
2013-07-23 09:30:00,71.4,65.6,29.80,North,353,0.0,0.0,82,0.00,,,0.01,Wunderground v.1.15,2013-07-23 14:30:00,
2013-07-23 09:35:00,71.5,65.4,29.81,NNE,16,0.0,0.0,81,0.00,,,0.01,Wunderground v.1.15,2013-07-23 14:35:00,
2013-07-23 09:40:00,72.1,66.3,29.81,West,263,0.0,0.0,82,0.00,,,0.01,Wunderground v.1.15,2013-07-23 14:40:00,
2013-07-23 09:55:00,72.9,66.0,29.82,NNW,337,0.0,0.0,79,0.00,,,0.01,Wunderground v.1.15,2013-07-23 14:55:00,
2013-07-23 10:00:00,73.3,66.0,29.82,NNW,346,0.0,0.0,78,0.00,,,0.01,Wunderground v.1.15,2013-07-23 15:00:00,
2013-07-23 10:05:00,74.0,66.7,29.82,NW,312,0.0,0.0,78,0.00,,,0.01,Wunderground v.1.15,2013-07-23 15:05:00,
2013-07-23 10:15:00,75.2,67.5,29.82,NE,44,0.0,0.0,77,0.00,,,0.01,Wunderground v.1.15,2013-07-23 15:15:00,
2013-07-23 10:25:00,76.6,66.9,29.82,West,280,0.0,0.0,72,0.00,,,0.01,Wunderground v.1.15,2013-07-23 15:25:00,
2013-07-23 10:35:00,77.5,66.1,29.82,North,0,0.0,0.0,68,0.00,,,0.01,Wunderground v.1.15,2013-07-23 15:35:00,
2013-07-23 10:40:00,76.6,66.5,29.82,NNE,32,0.0,0.0,71,0.00,,,0.01,Wunderground v.1.15,2013-07-23 15:40:00,
2013-07-23 10:45:00,76.6,67.3,29.82,WNW,302,0.0,0.0,73,0.00,,,0.01,Wunderground v.1.15,2013-07-23 15:45:00,
2013-07-23 10:50:00,77.0,66.5,29.82,NNE,21,0.0,0.0,70,0.00,,,0.01,Wunderground v.1.15,2013-07-23 15:50:00,
2013-07-23 10:55:00,76.8,65.4,29.82,North,0,0.0,0.0,68,0.00,,,0.01,Wunderground v.1.15,2013-07-23 15:55:00,
2013-07-23 11:05:00,76.8,63.7,29.83,NNE,31,0.0,1.0,64,0.00,,,0.01,Wunderground v.1.15,2013-07-23 16:05:00,
2013-07-23 11:15:00,76.2,64.4,29.83,NNE,28,0.0,0.0,67,0.00,,,0.01,Wunderground v.1.15,2013-07-23 16:15:00,
2013-07-23 11:25:00,77.1,63.5,29.83,NNW,339,0.0,0.0,63,0.00,,,0.01,Wunderground v.1.15,2013-07-23 16:25:00,
2013-07-23 11:30:00,77.5,64.4,29.83,NNE,23,0.0,0.0,64,0.00,,,0.01,Wunderground v.1.15,2013-07-23 16:30:00,
2013-07-23 11:35:00,76.8,64.1,29.84,NNE,31,0.0,0.0,65,0.00,,,0.01,Wunderground v.1.15,2013-07-23 16:35:00,
2013-07-23 11:40:00,76.1,63.0,29.84,North,3,0.0,0.0,64,0.00,,,0.01,Wunderground v.1.15,2013-07-23 16:40:00,
2013-07-23 11:45:00,75.7,63.5,29.84,NNE,28,0.0,0.0,66,0.00,,,0.01,Wunderground v.1.15,2013-07-23 16:45:00,
2013-07-23 11:50:00,75.9,63.7,29.84,North,4,0.0,0.0,66,0.00,,,0.01,Wunderground v.1.15,2013-07-23 16:50:00,
2013-07-23 11:55:00,75.9,62.8,29.84,North,359,0.0,0.0,64,0.00,,,0.01,Wunderground v.1.15,2013-07-23 16:55:00,
2013-07-23 12:05:00,77.5,63.9,29.84,North,357,0.0,0.0,63,0.00,,,0.01,Wunderground v.1.15,2013-07-23 17:05:00,
2013-07-23 12:25:00,77.5,64.4,29.85,NE,37,0.0,0.0,64,0.00,,,0.01,Wunderground v.1.15,2013-07-23 17:25:00,
2013-07-23 12:30:00,77.3,64.2,29.85,NNE,13,0.0,0.0,64,0.00,,,0.01,Wunderground v.1.15,2013-07-23 17:30:00,
2013-07-23 12:40:00,77.7,64.5,29.86,North,0,0.0,0.0,64,0.00,,,0.01,Wunderground v.1.15,2013-07-23 17:40:00,
2013-07-23 12:45:00,77.7,63.6,29.86,North,8,0.0,0.0,62,0.00,,,0.01,Wunderground v.1.15,2013-07-23 17:45:00,
2013-07-23 12:50:00,77.7,64.5,29.84,NNW,333,0.0,0.0,64,0.00,,,0.01,Wunderground v.1.15,2013-07-23 17:50:00,
2013-07-23 13:00:00,77.5,63.5,29.84,NNW,342,0.0,0.0,62,0.00,,,0.01,Wunderground v.1.15,2013-07-23 18:00:00,
2013-07-23 13:06:00,77.7,64.1,29.85,NNW,328,0.0,0.0,63,0.00,,,0.01,Wunderground v.1.15,2013-07-23 18:06:00,
2013-07-23 13:10:00,77.5,62.5,29.85,North,3,0.0,0.0,60,0.00,,,0.01,Wunderground v.1.15,2013-07-23 18:10:00,
2013-07-23 13:16:00,78.0,64.4,29.85,North,353,0.0,0.0,63,0.00,,,0.01,Wunderground v.1.15,2013-07-23 18:16:00,
2013-07-23 13:25:00,78.0,63.0,29.84,NW,322,0.0,0.0,60,0.00,,,0.01,Wunderground v.1.15,2013-07-23 18:25:00,
2013-07-23 13:30:00,77.5,62.0,29.84,NW,315,0.0,0.0,59,0.00,,,0.01,Wunderground v.1.15,2013-07-23 18:30:00,
2013-07-23 13:35:00,76.8,62.3,29.85,North,349,0.0,0.0,61,0.00,,,0.01,Wunderground v.1.15,2013-07-23 18:35:00,
2013-07-23 13:40:00,76.4,62.4,29.85,North,0,0.0,0.0,62,0.00,,,0.01,Wunderground v.1.15,2013-07-23 18:40:00,
2013-07-23 13:50:00,75.7,61.8,29.85,North,350,0.0,0.0,62,0.00,,,0.01,Wunderground v.1.15,2013-07-23 18:50:00,
2013-07-23 14:01:00,75.4,61.9,29.85,North,0,0.0,0.0,63,0.00,,,0.01,Wunderground v.1.15,2013-07-23 19:01:00,
2013-07-23 14:21:00,75.2,60.8,29.86,NNW,335,0.0,0.0,61,0.00,,,0.01,Wunderground v.1.15,2013-07-23 19:21:00,
2013-07-23 14:26:00,74.8,60.9,29.86,North,1,0.0,0.0,62,0.00,,,0.01,Wunderground v.1.15,2013-07-23 19:26:00,
2013-07-23 14:30:00,74.8,61.4,29.86,NNW,330,0.0,0.0,63,0.00,,,0.01,Wunderground v.1.15,2013-07-23 19:30:00,
2013-07-23 14:35:00,74.7,61.3,29.85,North,353,0.0,0.0,63,0.00,,,0.01,Wunderground v.1.15,2013-07-23 19:35:00,
2013-07-23 14:45:00,74.3,61.3,29.85,NNW,342,0.0,0.0,64,0.00,,,0.01,Wunderground v.1.15,2013-07-23 19:45:00,
2013-07-23 14:55:00,74.1,61.1,29.84,NNE,16,0.0,0.0,64,0.00,,,0.01,Wunderground v.1.15,2013-07-23 19:55:00,
2013-07-23 15:00:00,74.1,61.6,29.84,NW,308,0.0,0.0,65,0.00,,,0.01,Wunderground v.1.15,2013-07-23 20:00:00,
2013-07-23 15:05:00,74.3,61.3,29.85,NNW,328,0.0,0.0,64,0.00,,,0.01,Wunderground v.1.15,2013-07-23 20:05:00,
2013-07-23 15:10:00,74.3,61.3,29.85,NNE,30,0.0,0.0,64,0.00,,,0.01,Wunderground v.1.15,2013-07-23 20:10:00,
2013-07-23 15:20:00,74.8,61.8,29.84,North,354,0.0,0.0,64,0.00,,,0.01,Wunderground v.1.15,2013-07-23 20:20:00,
2013-07-23 15:26:00,75.0,62.0,29.84,North,352,0.0,0.0,64,0.00,,,0.01,Wunderground v.1.15,2013-07-23 20:26:00,
2013-07-23 15:30:00,75.2,60.8,29.84,NNW,335,0.0,0.0,61,0.00,,,0.01,Wunderground v.1.15,2013-07-23 20:30:00,
2013-07-23 15:36:00,74.8,61.4,29.85,North,353,0.0,0.0,63,0.00,,,0.01,Wunderground v.1.15,2013-07-23 20:36:00,
2013-07-23 15:40:00,74.8,61.4,29.85,North,0,0.0,0.0,63,0.00,,,0.01,Wunderground v.1.15,2013-07-23 20:40:00,
2013-07-23 15:50:00,74.8,60.9,29.85,NNW,329,0.0,0.0,62,0.00,,,0.01,Wunderground v.1.15,2013-07-23 20:50:00,
2013-07-23 16:00:00,75.9,61.5,29.85,NW,320,0.0,0.0,61,0.00,,,0.01,Wunderground v.1.15,2013-07-23 21:00:00,
2013-07-23 16:05:00,76.1,60.7,29.84,West,280,0.0,0.0,59,0.00,,,0.01,Wunderground v.1.15,2013-07-23 21:05:00,
2013-07-23 16:15:00,75.9,61.0,29.84,North,0,0.0,0.0,60,0.00,,,0.01,Wunderground v.1.15,2013-07-23 21:15:00,
2013-07-23 16:20:00,75.5,60.2,29.84,NNE,18,0.0,0.0,59,0.00,,,0.01,Wunderground v.1.15,2013-07-23 21:20:00,
2013-07-23 16:30:00,74.7,59.9,29.84,North,0,0.0,0.0,60,0.00,,,0.01,Wunderground v.1.15,2013-07-23 21:30:00,
2013-07-23 16:40:00,74.5,59.2,29.84,NE,35,0.0,0.0,59,0.00,,,0.01,Wunderground v.1.15,2013-07-23 21:40:00,
2013-07-23 16:50:00,74.3,59.5,29.84,North,8,0.0,0.0,60,0.00,,,0.01,Wunderground v.1.15,2013-07-23 21:50:00,
2013-07-23 16:55:00,74.3,59.5,29.84,NW,309,0.0,0.0,60,0.00,,,0.01,Wunderground v.1.15,2013-07-23 21:55:00,
2013-07-23 17:05:00,74.1,59.8,29.84,NNW,328,0.0,0.0,61,0.00,,,0.01,Wunderground v.1.15,2013-07-23 22:05:00,
2013-07-23 17:10:00,74.1,58.9,29.84,NNW,332,0.0,0.0,59,0.00,,,0.01,Wunderground v.1.15,2013-07-23 22:10:00,
2013-07-23 17:20:00,74.0,58.3,29.84,NNE,31,0.0,1.0,58,0.00,,,0.01,Wunderground v.1.15,2013-07-23 22:20:00,
2013-07-23 17:30:00,73.4,57.7,29.84,North,11,0.0,0.0,58,0.00,,,0.01,Wunderground v.1.15,2013-07-23 22:30:00,
2013-07-23 17:35:00,73.3,57.1,29.84,NNE,23,1.0,1.0,57,0.00,,,0.01,Wunderground v.1.15,2013-07-23 22:35:00,
2013-07-23 17:40:00,73.3,57.1,29.84,NE,40,0.0,1.0,57,0.00,,,0.01,Wunderground v.1.15,2013-07-23 22:40:00,
2013-07-23 17:50:00,73.1,57.4,29.85,North,6,0.0,0.0,58,0.00,,,0.01,Wunderground v.1.15,2013-07-23 22:50:00,
2013-07-23 18:00:00,72.7,57.5,29.85,NNE,16,0.0,0.0,59,0.00,,,0.01,Wunderground v.1.15,2013-07-23 23:00:00,
2013-07-23 18:06:00,72.7,58.0,29.85,NNE,16,0.0,0.0,60,0.00,,,0.01,Wunderground v.1.15,2013-07-23 23:06:00,
2013-07-23 18:11:00,72.7,58.0,29.85,NNE,16,0.0,0.0,60,0.00,,,0.01,Wunderground v.1.15,2013-07-23 23:11:00,
2013-07-23 18:15:00,72.7,58.5,29.85,NNE,16,0.0,0.0,61,0.00,,,0.01,Wunderground v.1.15,2013-07-23 23:15:00,
2013-07-23 18:20:00,72.9,58.7,29.85,NNE,16,0.0,0.0,61,0.00,,,0.01,Wunderground v.1.15,2013-07-23 23:20:00,
2013-07-23 18:25:00,72.9,59.1,29.85,NNE,16,0.0,0.0,62,0.00,,,0.01,Wunderground v.1.15,2013-07-23 23:25:00,
2013-07-23 18:35:00,72.9,59.1,29.85,North,0,0.0,0.0,62,0.00,,,0.01,Wunderground v.1.15,2013-07-23 23:35:00,
2013-07-23 18:46:00,72.9,59.1,29.85,North,0,0.0,0.0,62,0.00,,,0.01,Wunderground v.1.15,2013-07-23 23:46:00,
2013-07-23 18:50:00,72.9,60.0,29.84,North,0,0.0,0.0,64,0.00,,,0.01,Wunderground v.1.15,2013-07-23 23:50:00,
2013-07-23 18:56:00,73.1,59.8,29.84,NW,309,0.0,0.0,63,0.00,,,0.01,Wunderground v.1.15,2013-07-23 23:56:00,
2013-07-23 19:00:00,73.1,59.3,29.84,North,359,0.0,0.0,62,0.00,,,0.01,Wunderground v.1.15,2013-07-24 00:00:00,
2013-07-23 19:05:00,72.9,59.6,29.84,North,359,0.0,0.0,63,0.00,,,0.01,Wunderground v.1.15,2013-07-24 00:05:00,
2013-07-23 19:10:00,72.9,59.6,29.84,North,359,0.0,0.0,63,0.00,,,0.01,Wunderground v.1.15,2013-07-24 00:10:00,
2013-07-23 19:15:00,72.7,58.9,29.84,North,359,0.0,0.0,62,0.00,,,0.01,Wunderground v.1.15,2013-07-24 00:15:00,
2013-07-23 19:25:00,72.7,59.4,29.85,North,356,0.0,0.0,63,0.00,,,0.01,Wunderground v.1.15,2013-07-24 00:25:00,
2013-07-23 19:31:00,72.6,59.7,29.85,North,356,0.0,0.0,64,0.00,,,0.01,Wunderground v.1.15,2013-07-24 00:31:00,
2013-07-23 19:40:00,72.4,60.0,29.85,North,356,0.0,0.0,65,0.00,,,0.01,Wunderground v.1.15,2013-07-24 00:40:00,
2013-07-23 19:45:00,72.4,60.4,29.85,North,356,0.0,0.0,66,0.00,,,0.01,Wunderground v.1.15,2013-07-24 00:45:00,
2013-07-23 19:55:00,71.9,60.3,29.85,North,356,0.0,0.0,67,0.00,,,0.01,Wunderground v.1.15,2013-07-24 00:55:00,
2013-07-23 20:00:00,71.5,60.4,29.85,North,356,0.0,0.0,68,0.00,,,0.01,Wunderground v.1.15,2013-07-24 01:00:00,
2013-07-23 20:05:00,71.4,60.3,29.86,North,356,0.0,0.0,68,0.00,,,0.01,Wunderground v.1.15,2013-07-24 01:05:00,
2013-07-23 20:11:00,71.2,60.5,29.86,North,356,0.0,0.0,69,0.00,,,0.01,Wunderground v.1.15,2013-07-24 01:11:00,
2013-07-23 20:16:00,71.0,60.3,29.86,North,356,0.0,0.0,69,0.00,,,0.01,Wunderground v.1.15,2013-07-24 01:16:00,
2013-07-23 20:25:00,70.7,60.8,29.85,North,356,0.0,0.0,71,0.00,,,0.01,Wunderground v.1.15,2013-07-24 01:25:00,
2013-07-23 20:30:00,70.5,60.6,29.85,North,356,0.0,0.0,71,0.00,,,0.01,Wunderground v.1.15,2013-07-24 01:30:00,
2013-07-23 20:45:00,70.2,60.4,29.85,North,356,0.0,0.0,71,0.00,,,0.01,Wunderground v.1.15,2013-07-24 01:45:00,
2013-07-23 20:50:00,70.0,60.6,29.86,North,356,0.0,0.0,72,0.00,,,0.01,Wunderground v.1.15,2013-07-24 01:50:00,
2013-07-23 21:05:00,69.7,60.7,29.87,North,356,0.0,0.0,73,0.00,,,0.01,Wunderground v.1.15,2013-07-24 02:05:00,
2013-07-23 21:10:00,69.5,60.5,29.87,North,356,0.0,0.0,73,0.00,,,0.01,Wunderground v.1.15,2013-07-24 02:10:00,
2013-07-23 21:16:00,69.3,60.3,29.87,North,356,0.0,0.0,73,0.00,,,0.01,Wunderground v.1.15,2013-07-24 02:16:00,
2013-07-23 21:25:00,69.2,60.6,29.88,North,352,0.0,0.0,74,0.00,,,0.01,Wunderground v.1.15,2013-07-24 02:25:00,
2013-07-23 21:35:00,69.2,60.6,29.88,North,352,0.0,0.0,74,0.00,,,0.01,Wunderground v.1.15,2013-07-24 02:35:00,
2013-07-23 21:40:00,69.0,60.7,29.88,North,352,0.0,0.0,75,0.00,,,0.01,Wunderground v.1.15,2013-07-24 02:40:00,
2013-07-23 21:45:00,69.0,60.7,29.88,North,352,0.0,0.0,75,0.00,,,0.01,Wunderground v.1.15,2013-07-24 02:45:00,
2013-07-23 21:55:00,68.8,60.9,29.89,North,352,0.0,0.0,76,0.00,,,0.01,Wunderground v.1.15,2013-07-24 02:55:00,
2013-07-23 22:00:00,68.7,60.8,29.89,North,352,0.0,0.0,76,0.00,,,0.01,Wunderground v.1.15,2013-07-24 03:00:00,
2013-07-23 22:10:00,68.5,61.0,29.90,North,352,0.0,0.0,77,0.00,,,0.01,Wunderground v.1.15,2013-07-24 03:10:00,
2013-07-23 22:15:00,68.2,61.1,29.90,North,352,0.0,0.0,78,0.00,,,0.01,Wunderground v.1.15,2013-07-24 03:15:00,
2013-07-23 22:20:00,68.0,60.9,29.90,North,352,0.0,0.0,78,0.00,,,0.01,Wunderground v.1.15,2013-07-24 03:20:00,
2013-07-23 22:25:00,67.8,61.0,29.90,North,352,0.0,0.0,79,0.00,,,0.01,Wunderground v.1.15,2013-07-24 03:25:00,
2013-07-23 22:35:00,67.5,60.8,29.90,North,352,0.0,0.0,79,0.00,,,0.01,Wunderground v.1.15,2013-07-24 03:35:00,
2013-07-23 22:45:00,67.0,60.6,29.90,North,352,0.0,0.0,80,0.00,,,0.01,Wunderground v.1.15,2013-07-24 03:45:00,
2013-07-23 22:56:00,66.5,60.5,29.91,North,352,0.0,0.0,81,0.00,,,0.01,Wunderground v.1.15,2013-07-24 03:56:00,
2013-07-23 23:10:00,66.0,60.3,29.91,North,352,0.0,0.0,82,0.00,,,0.01,Wunderground v.1.15,2013-07-24 04:10:00,
2013-07-23 23:15:00,65.8,60.2,29.91,North,352,0.0,0.0,82,0.00,,,0.01,Wunderground v.1.15,2013-07-24 04:15:00,
2013-07-23 23:20:00,65.5,60.2,29.91,North,352,0.0,0.0,83,0.00,,,0.01,Wunderground v.1.15,2013-07-24 04:20:00,
2013-07-23 23:35:00,65.4,59.8,29.91,NNE,14,0.0,0.0,82,0.00,,,0.01,Wunderground v.1.15,2013-07-24 04:35:00,
2013-07-23 23:45:00,65.7,59.0,29.91,NNE,14,0.0,0.0,79,0.00,,,0.01,Wunderground v.1.15,2013-07-24 04:45:00,
2013-07-23 23:55:00,65.7,57.9,29.91,NNE,17,0.0,0.0,76,0.00,,,0.01,Wunderground v.1.15,2013-07-24 04:55:00,